createdAt,value
2018-02-21T00:01:55.206Z,124.70
2018-02-21T00:04:23.579Z,136.27
2018-02-21T00:06:51.124Z,127.03
2018-02-21T00:09:19.432Z,121.47
2018-02-21T00:11:47.015Z,118.03
2018-02-21T00:14:15.547Z,128.70
2018-02-21T00:16:43.097Z,122.67
2018-02-21T00:19:11.435Z,132.60
2018-02-21T00:21:38.996Z,142.07
2018-02-21T00:24:06.553Z,123.15
2018-02-21T00:26:34.420Z,131.77
2018-02-21T00:29:01.972Z,138.13
2018-02-21T00:31:29.516Z,127.40
2018-02-21T00:33:57.084Z,113.80
2018-02-21T00:36:24.627Z,125.53
2018-02-21T00:38:52.167Z,135.10
2018-02-21T00:41:20.249Z,125.50
2018-02-21T00:43:47.803Z,119.30
2018-02-21T00:46:16.479Z,110.30
2018-02-21T00:48:44.551Z,114.87
2018-02-21T00:51:12.096Z,121.60
2018-02-21T00:53:39.644Z,117.37
2018-02-21T00:56:07.217Z,119.63
2018-02-21T00:58:34.757Z,121.07
2018-02-21T01:01:02.307Z,125.63
2018-02-21T01:03:29.899Z,116.20
2018-02-21T01:05:57.452Z,116.40
2018-02-21T01:08:25.003Z,123.70
2018-02-21T01:10:53.263Z,116.72
2018-02-21T01:13:20.803Z,132.13
2018-02-21T01:15:48.343Z,127.17
2018-02-21T01:18:16.541Z,126.65
2018-02-21T01:20:44.089Z,120.73
2018-02-21T01:23:11.627Z,132.20
2018-02-21T01:25:39.220Z,129.30
2018-02-21T01:28:06.770Z,128.73
2018-02-21T01:30:34.325Z,139.07
2018-02-21T01:33:02.227Z,126.20
2018-02-21T01:35:29.767Z,122.55
2018-02-21T01:37:57.312Z,128.17
2018-02-21T01:40:24.881Z,134.43
2018-02-21T01:42:53.244Z,128.10
2018-02-21T01:45:20.787Z,129.53
2018-02-21T01:47:49.140Z,122.83
2018-02-21T01:50:16.684Z,122.10
2018-02-21T01:52:44.232Z,118.10
2018-02-21T01:55:12.420Z,131.50
2018-02-21T01:57:39.964Z,134.80
2018-02-21T02:00:07.511Z,123.00
2018-02-21T02:02:35.087Z,120.03
2018-02-21T02:05:02.623Z,122.10
2018-02-21T02:07:30.172Z,136.00
2018-02-21T02:09:57.777Z,135.93
2018-02-21T02:12:25.327Z,139.63
2018-02-21T02:14:52.872Z,132.57
2018-02-21T02:17:20.915Z,149.82
2018-02-21T02:19:48.462Z,146.60
2018-02-21T02:22:16.435Z,139.00
2018-02-21T02:24:44.007Z,149.97
2018-02-21T02:27:11.547Z,148.17
2018-02-21T02:29:39.088Z,138.60
2018-02-21T02:32:06.672Z,147.37
2018-02-21T02:34:34.985Z,135.90
2018-02-21T02:37:02.540Z,141.12
2018-02-21T02:39:42.159Z,137.97
2018-02-21T02:42:09.704Z,135.20
2018-02-21T02:44:37.803Z,145.27
2018-02-21T02:47:05.390Z,142.10
2018-02-21T02:49:32.931Z,147.02
2018-02-21T02:52:00.479Z,142.00
2018-02-21T02:54:28.053Z,146.10
2018-02-21T02:56:55.603Z,147.53
2018-02-21T02:59:23.147Z,142.43
2018-02-21T03:01:51.288Z,138.97
2018-02-21T03:04:18.839Z,141.23
2018-02-21T03:06:46.380Z,148.57
2018-02-21T03:09:25.311Z,137.85
2018-02-21T03:21:33.463Z,127.22
2018-02-21T03:24:01.019Z,150.87
2018-02-21T03:26:28.560Z,149.15
2018-02-21T03:28:56.131Z,147.00
2018-02-21T03:31:23.677Z,148.50
2018-02-21T03:33:51.231Z,148.93
2018-02-21T03:36:18.839Z,154.02
2018-02-21T03:38:46.390Z,145.67
2018-02-21T03:41:16.323Z,154.18
2018-02-21T03:43:44.819Z,150.63
2018-02-21T03:46:12.844Z,149.10
2018-02-21T03:48:40.398Z,143.30
2018-02-21T03:51:08.740Z,155.10
2018-02-21T03:53:36.451Z,130.13
2018-02-21T03:56:03.998Z,151.47
2018-02-21T03:58:32.339Z,139.10
2018-02-21T04:00:59.886Z,131.67
2018-02-21T04:03:27.440Z,131.00
2018-02-21T04:05:55.311Z,131.80
2018-02-21T04:08:22.852Z,129.50
2018-02-21T04:10:50.394Z,127.13
2018-02-21T04:13:17.969Z,121.03
2018-02-21T04:15:45.515Z,126.45
2018-02-21T04:18:27.344Z,126.97
2018-02-21T04:23:51.762Z,115.63
2018-02-21T04:26:19.312Z,131.25
2018-02-21T04:28:46.860Z,121.75
2018-02-21T04:31:16.395Z,112.78
2018-02-21T04:33:43.935Z,99.77
2018-02-21T04:36:11.484Z,118.50
2018-02-21T04:38:39.060Z,116.80
2018-02-21T04:41:06.603Z,111.97
2018-02-21T04:43:34.195Z,132.30
2018-02-21T04:46:02.128Z,124.07
2018-02-21T04:48:29.976Z,131.37
2018-02-21T04:50:57.527Z,119.82
2018-02-21T04:53:26.067Z,133.53
2018-02-21T04:56:01.159Z,119.30
2018-02-21T04:58:34.275Z,121.80
2018-02-21T05:01:01.820Z,131.00
2018-02-21T05:03:29.355Z,135.07
2018-02-21T05:05:57.407Z,113.70
2018-02-21T05:08:24.952Z,118.17
2018-02-21T05:10:52.499Z,123.13
2018-02-21T05:55:03.379Z,141.77
2018-02-21T05:57:30.934Z,151.53
2018-02-21T05:59:58.492Z,143.60
2018-02-21T06:02:26.084Z,156.67
2018-02-21T06:04:54.391Z,160.57
2018-02-21T06:07:21.934Z,150.90
2018-02-21T06:09:49.528Z,152.87
2018-02-21T06:12:17.084Z,154.93
2018-02-21T06:14:44.619Z,167.73
2018-02-21T06:17:12.247Z,155.17
2018-02-21T06:19:39.792Z,166.20
2018-02-21T06:22:07.344Z,169.07
2018-02-21T06:24:34.919Z,162.67
2018-02-21T06:27:02.463Z,160.70
2018-02-21T06:29:30.004Z,170.17
2018-02-21T06:31:57.594Z,159.17
2018-02-21T06:34:25.135Z,148.17
2018-02-21T06:36:52.679Z,131.73
2018-02-21T06:39:20.750Z,146.23
2018-02-21T06:41:48.297Z,150.00
2018-02-21T06:44:16.539Z,148.70
2018-02-21T06:46:44.879Z,137.07
2018-02-21T06:49:12.423Z,167.73
2018-02-21T06:51:39.976Z,137.73
2018-02-21T06:54:07.548Z,151.12
2018-02-21T06:56:36.354Z,142.33
2018-02-21T06:59:03.897Z,140.00
2018-02-21T07:01:31.780Z,138.97
2018-02-21T07:03:59.322Z,125.07
2018-02-21T07:06:26.870Z,118.87
2018-02-21T07:08:54.459Z,123.00
2018-02-21T07:11:22.067Z,118.20
2018-02-21T07:13:49.646Z,123.32
2018-02-21T07:16:17.341Z,122.23
2018-02-21T07:18:46.083Z,120.87
2018-02-21T07:21:24.643Z,112.83
2018-02-21T07:26:25.756Z,115.47
2018-02-21T07:28:53.307Z,120.67
2018-02-21T07:31:20.855Z,116.57
2018-02-21T07:33:48.551Z,112.43
2018-02-21T07:36:16.606Z,109.87
2018-02-21T07:38:44.311Z,103.40
2018-02-21T07:41:11.918Z,110.10
2018-02-21T07:43:39.510Z,103.50
2018-02-21T07:46:07.782Z,103.70
2018-02-21T07:48:35.363Z,103.20
2018-02-21T07:51:02.910Z,104.10
2018-02-21T07:53:30.570Z,109.30
2018-02-21T07:55:58.188Z,99.17
2018-02-21T07:58:26.299Z,105.90
2018-02-21T08:00:53.927Z,110.07
2018-02-21T08:03:21.875Z,102.22
2018-02-21T08:05:49.553Z,109.70
2018-02-21T08:08:17.119Z,106.23
2018-02-21T08:10:44.691Z,106.67
2018-02-21T08:13:14.032Z,95.73
2018-02-21T08:15:41.563Z,96.30
2018-02-21T08:18:09.158Z,97.40
2018-02-21T08:20:36.808Z,94.37
2018-02-21T08:23:04.373Z,99.10
2018-02-21T08:25:32.819Z,94.80
2018-02-21T08:28:00.391Z,97.80
2018-02-21T08:30:27.964Z,97.70
2018-02-21T08:32:55.560Z,92.62
2018-02-21T08:35:24.008Z,91.73
2018-02-21T08:37:51.551Z,90.97
2018-02-21T08:40:19.891Z,99.00
2018-02-21T08:42:47.464Z,100.83
2018-02-21T08:45:16.502Z,99.37
2018-02-21T08:47:44.681Z,113.53
2018-02-21T08:50:12.240Z,104.03
2018-02-21T08:52:40.701Z,102.93
2018-02-21T08:55:08.284Z,107.87
2018-02-21T08:57:35.827Z,113.43
2018-02-21T09:00:03.875Z,107.57
2018-02-21T09:02:31.528Z,107.23
2018-02-21T09:04:59.186Z,111.10
2018-02-21T09:07:26.837Z,106.23
2018-02-21T09:09:54.611Z,102.83
2018-02-21T09:12:22.344Z,106.77
2018-02-21T09:14:49.914Z,103.70
2018-02-21T09:17:17.481Z,102.45
2018-02-21T09:19:45.021Z,103.00
2018-02-21T09:22:12.890Z,103.72
2018-02-21T09:24:40.467Z,106.77
2018-02-21T09:27:08.009Z,112.30
2018-02-21T09:29:35.738Z,106.97
2018-02-21T09:32:04.245Z,103.53
2018-02-21T09:34:31.778Z,103.33
2018-02-21T09:36:59.361Z,106.83
2018-02-21T09:39:26.934Z,113.32
2018-02-21T09:41:54.473Z,108.17
2018-02-21T09:44:22.007Z,108.53
2018-02-21T09:46:49.590Z,102.57
2018-02-21T09:49:17.364Z,103.77
2018-02-21T09:51:44.898Z,98.53
2018-02-21T09:54:12.823Z,103.00
2018-02-21T09:56:40.523Z,101.07
2018-02-21T09:59:08.065Z,112.07
2018-02-21T10:01:36.131Z,109.90
2018-02-21T10:04:03.667Z,108.30
2018-02-21T10:06:31.211Z,104.03
2018-02-21T10:08:58.817Z,107.83
2018-02-21T10:11:26.360Z,101.10
2018-02-21T10:13:53.891Z,103.57
2018-02-21T10:16:22.087Z,102.30
2018-02-21T10:18:49.940Z,102.80
2018-02-21T10:21:17.493Z,110.70
2018-02-21T10:23:45.074Z,110.27
2018-02-21T10:26:13.700Z,111.70
2018-02-21T10:28:41.247Z,120.80
2018-02-21T10:31:09.607Z,113.83
2018-02-21T10:33:37.151Z,108.03
2018-02-21T10:36:04.770Z,110.43
2018-02-21T10:38:32.697Z,107.67
2018-02-21T10:41:00.200Z,114.77
2018-02-21T10:43:27.765Z,103.67
2018-02-21T10:45:55.348Z,116.30
2018-02-21T10:48:22.895Z,115.70
2018-02-21T10:50:50.467Z,114.73
2018-02-21T10:53:18.047Z,110.50
2018-02-21T10:55:45.584Z,122.37
2018-02-21T10:58:25.157Z,116.50
2018-02-21T11:03:27.727Z,118.07
2018-02-21T11:05:55.269Z,107.87
2018-02-21T11:08:22.808Z,116.33
2018-02-21T11:10:50.374Z,118.40
2018-02-21T11:13:17.922Z,112.83
2018-02-21T11:15:46.239Z,115.28
2018-02-21T11:18:27.548Z,113.22
2018-02-21T11:29:10.128Z,116.53
2018-02-21T11:31:37.671Z,113.33
2018-02-21T11:34:05.230Z,107.93
2018-02-21T11:36:33.521Z,107.97
2018-02-21T11:39:01.102Z,109.10
2018-02-21T11:41:28.861Z,118.47
2018-02-21T11:43:56.455Z,114.53
2018-02-21T11:46:24.000Z,102.57
2018-02-21T11:48:52.315Z,112.30
2018-02-21T11:51:20.092Z,118.40
2018-02-21T11:53:47.630Z,124.80
2018-02-21T11:56:15.561Z,106.90
2018-02-21T11:58:43.191Z,113.77
2018-02-21T12:01:10.739Z,118.63
2018-02-21T12:03:38.576Z,118.70
2018-02-21T12:06:06.151Z,122.70
2018-02-21T12:08:33.691Z,113.63
2018-02-21T12:11:01.292Z,116.57
2018-02-21T12:13:28.939Z,120.03
2018-02-21T12:15:56.490Z,124.20
2018-02-21T12:18:24.039Z,121.40
2018-02-21T12:20:52.284Z,119.33
2018-02-21T12:23:19.815Z,126.12
2018-02-21T12:25:47.754Z,121.13
2018-02-21T12:28:16.492Z,129.95
2018-02-21T12:30:44.032Z,126.27
2018-02-21T12:33:11.589Z,118.37
2018-02-21T12:35:39.164Z,110.50
2018-02-21T12:38:06.711Z,126.20
2018-02-21T12:40:39.841Z,122.67
2018-02-21T12:43:07.763Z,125.00
2018-02-21T12:45:35.306Z,124.73
2018-02-21T12:48:02.849Z,126.87
2018-02-21T12:50:30.428Z,125.23
2018-02-21T12:52:57.974Z,128.93
2018-02-21T12:55:25.519Z,127.68
2018-02-21T12:57:53.143Z,123.40
2018-02-21T13:00:20.684Z,123.30
2018-02-21T13:02:48.247Z,130.50
2018-02-21T13:05:17.319Z,124.45
2018-02-21T13:07:44.952Z,130.03
2018-02-21T13:10:12.492Z,126.80
2018-02-21T13:12:40.070Z,122.00
2018-02-21T13:15:07.631Z,125.67
2018-02-21T13:17:35.935Z,119.27
2018-02-21T13:20:03.494Z,124.77
2018-02-21T13:22:31.039Z,125.27
2018-02-21T13:24:58.582Z,129.97
2018-02-21T13:27:26.386Z,109.75
2018-02-21T13:29:53.930Z,121.77
2018-02-21T13:32:21.477Z,124.17
2018-02-21T13:34:49.376Z,122.17
2018-02-21T13:37:17.068Z,118.47
2018-02-21T13:39:44.621Z,122.83
2018-02-21T13:42:12.201Z,120.27
2018-02-21T13:44:39.823Z,119.70
2018-02-21T13:47:07.395Z,120.95
2018-02-21T13:49:35.376Z,116.20
2018-02-21T13:52:02.929Z,114.13
2018-02-21T13:54:30.469Z,119.13
2018-02-21T13:56:58.388Z,112.97
2018-02-21T13:59:25.936Z,114.23
2018-02-21T14:01:53.483Z,118.00
2018-02-21T14:04:23.878Z,109.70
2018-02-21T14:06:51.876Z,115.15
2018-02-21T14:09:20.239Z,106.00
2018-02-21T14:11:48.217Z,114.20
2018-02-21T14:14:16.730Z,113.20
2018-02-21T14:16:44.293Z,118.27
2018-02-21T14:19:11.884Z,112.97
2018-02-21T14:21:40.184Z,116.78
2018-02-21T14:24:07.739Z,112.87
2018-02-21T14:26:35.512Z,116.87
2018-02-21T14:29:03.047Z,112.57
2018-02-21T14:31:30.592Z,119.90
2018-02-21T14:33:59.397Z,115.37
2018-02-21T14:36:26.938Z,118.13
2018-02-21T14:38:54.471Z,114.80
2018-02-21T14:41:22.036Z,118.93
2018-02-21T14:43:49.576Z,112.12
2018-02-21T14:46:17.110Z,120.07
2018-02-21T14:48:44.699Z,122.90
2018-02-21T14:51:12.244Z,119.10
2018-02-21T14:53:39.788Z,110.43
2018-02-21T14:56:07.416Z,125.40
2018-02-21T14:58:35.822Z,114.63
2018-02-21T15:01:03.406Z,117.60
2018-02-21T15:03:30.982Z,116.17
2018-02-21T15:05:58.532Z,112.93
2018-02-21T15:08:26.451Z,127.53
2018-02-21T15:10:54.783Z,121.37
2018-02-21T15:13:23.998Z,119.47
2018-02-21T15:15:51.539Z,126.97
2018-02-21T15:18:19.422Z,126.03
2018-02-21T15:20:47.076Z,125.13
2018-02-21T15:23:16.347Z,120.40
2018-02-21T15:25:44.044Z,129.77
2018-02-21T15:28:11.609Z,129.73
2018-02-21T15:30:39.148Z,127.90
2018-02-21T15:33:07.147Z,124.57
2018-02-21T15:35:34.679Z,120.37
2018-02-21T15:38:02.256Z,129.87
2018-02-21T15:40:30.296Z,119.47
2018-02-21T15:42:58.092Z,119.57
2018-02-21T15:45:25.700Z,117.50
2018-02-21T15:47:53.263Z,110.80
2018-02-21T15:50:20.807Z,120.30
2018-02-21T15:52:48.352Z,111.97
2018-02-21T15:55:16.584Z,124.75
2018-02-21T15:57:44.127Z,122.73
2018-02-21T16:00:11.719Z,122.32
2018-02-21T16:02:39.350Z,113.77
2018-02-21T16:05:06.945Z,111.87
2018-02-21T16:07:34.959Z,123.68
2018-02-21T16:10:03.115Z,118.68
2018-02-21T16:12:31.679Z,144.20
2018-02-21T16:14:59.233Z,122.07
2018-02-21T16:17:26.832Z,129.60
2018-02-21T16:19:54.371Z,131.37
2018-02-21T16:22:23.234Z,115.27
2018-02-21T16:24:50.933Z,119.10
2018-02-21T16:27:19.246Z,120.30
2018-02-21T16:29:46.804Z,118.97
2018-02-21T16:32:25.369Z,116.43
2018-02-21T16:37:29.715Z,117.33
2018-02-21T16:39:57.290Z,123.50
2018-02-21T16:42:24.836Z,119.47
2018-02-21T16:44:52.754Z,120.03
2018-02-21T16:47:20.525Z,135.07
2018-02-21T16:49:48.074Z,121.10
2018-02-21T16:52:16.601Z,126.28
2018-02-21T16:54:44.160Z,155.27
2018-02-21T16:57:11.717Z,131.77
2018-02-21T16:59:39.358Z,132.03
2018-02-21T17:02:06.961Z,144.20
2018-02-21T17:04:34.843Z,138.73
2018-02-21T17:07:02.657Z,141.27
2018-02-21T17:09:30.241Z,137.13
2018-02-21T17:11:58.065Z,142.10
2018-02-21T17:14:25.687Z,149.37
2018-02-21T17:16:53.247Z,147.33
2018-02-21T17:19:21.572Z,136.27
2018-02-21T17:21:49.181Z,141.20
2018-02-21T17:24:17.569Z,127.17
2018-02-21T17:26:45.959Z,132.30
2018-02-21T17:29:14.908Z,135.20
2018-02-21T17:31:42.464Z,134.98
2018-02-21T17:34:10.051Z,144.33
2018-02-21T17:36:37.671Z,130.97
2018-02-21T17:39:06.120Z,134.80
2018-02-21T17:41:33.712Z,140.82
2018-02-21T17:44:01.399Z,142.27
2018-02-21T17:46:28.961Z,143.70
2018-02-21T17:48:56.528Z,124.43
2018-02-21T17:51:28.716Z,130.57
2018-02-21T17:53:57.069Z,139.53
2018-02-21T17:56:24.712Z,147.30
2018-02-21T17:58:52.405Z,134.00
2018-02-21T18:01:20.212Z,187.13
2018-02-21T18:03:47.815Z,180.73
2018-02-21T18:06:17.220Z,149.82
2018-02-21T18:08:44.764Z,153.07
2018-02-21T18:11:12.312Z,153.87
2018-02-21T18:13:40.135Z,149.13
2018-02-21T18:16:09.255Z,145.20
2018-02-21T18:18:36.909Z,133.83
2018-02-21T18:21:04.598Z,124.80
2018-02-21T18:23:32.136Z,134.87
2018-02-21T18:25:59.679Z,153.10
2018-02-21T18:28:28.021Z,190.17
2018-02-21T18:30:55.554Z,160.20
2018-02-21T18:33:23.116Z,155.87
2018-02-21T18:35:50.722Z,139.90
2018-02-21T18:38:18.260Z,151.97
2018-02-21T18:40:45.804Z,133.17
2018-02-21T18:43:25.284Z,139.25
2018-02-21T18:48:36.959Z,147.20
2018-02-21T18:51:04.495Z,144.00
2018-02-21T18:53:32.031Z,165.73
2018-02-21T18:55:59.623Z,161.55
2018-02-21T18:58:28.043Z,168.03
2018-02-21T19:00:58.375Z,163.07
2018-02-21T19:03:31.035Z,161.03
2018-02-21T19:05:58.596Z,153.13
2018-02-21T19:08:26.155Z,160.20
2018-02-21T19:10:54.125Z,163.80
2018-02-21T19:13:23.714Z,160.10
2018-02-21T19:15:51.540Z,176.67
2018-02-21T19:18:20.032Z,177.30
2018-02-21T19:20:47.623Z,159.80
2018-02-21T19:23:16.528Z,165.90
2018-02-21T19:25:44.122Z,147.97
2018-02-21T19:28:12.751Z,141.27
2018-02-21T19:30:42.025Z,148.40
2018-02-21T19:33:10.385Z,159.23
2018-02-21T19:35:37.968Z,146.13
2018-02-21T19:38:08.437Z,143.40
2018-02-21T19:40:36.072Z,169.47
2018-02-21T19:43:08.141Z,161.07
2018-02-21T19:45:35.704Z,165.48
2018-02-21T19:48:05.209Z,163.23
2018-02-21T19:50:32.778Z,160.63
2018-02-21T19:53:00.655Z,157.90
2018-02-21T19:55:29.083Z,153.90
2018-02-21T19:57:56.639Z,155.20
2018-02-21T20:00:25.016Z,148.60
2018-02-21T20:02:52.934Z,143.77
2018-02-21T20:08:25.233Z,143.60
2018-02-21T20:14:28.328Z,118.10
2018-02-21T20:16:56.996Z,127.40
2018-02-21T20:19:24.556Z,123.00
2018-02-21T20:21:52.578Z,144.27
2018-02-21T20:24:20.177Z,131.93
2018-02-21T20:26:47.796Z,134.43
2018-02-21T20:29:17.409Z,145.30
2018-02-21T20:31:44.956Z,166.27
2018-02-21T20:34:12.505Z,149.23
2018-02-21T20:36:40.079Z,149.50
2018-02-21T20:39:07.622Z,148.37
2018-02-21T20:41:35.179Z,154.00
2018-02-21T20:44:03.054Z,155.27
2018-02-21T20:46:30.604Z,155.10
2018-02-21T20:48:58.170Z,145.90
2018-02-21T20:51:25.839Z,143.50
2018-02-21T20:53:53.387Z,144.80
2018-02-21T20:56:20.935Z,134.83
2018-02-21T20:58:48.508Z,147.43
2018-02-21T21:01:16.512Z,164.00
2018-02-21T21:03:44.063Z,171.00
2018-02-21T21:06:11.823Z,159.68
2018-02-21T21:08:39.373Z,151.37
2018-02-21T21:11:06.928Z,172.20
2018-02-21T21:13:40.996Z,150.40
2018-02-21T21:16:08.544Z,151.82
2018-02-21T21:18:36.611Z,137.23
2018-02-21T21:21:04.202Z,145.90
2018-02-21T21:23:32.517Z,151.27
2018-02-21T21:26:00.176Z,140.57
2018-02-21T21:28:27.856Z,144.30
2018-02-21T21:30:55.479Z,143.47
2018-02-21T21:33:23.071Z,142.90
2018-02-21T21:35:50.644Z,146.68
2018-02-21T21:38:18.271Z,143.07
2018-02-21T21:40:45.817Z,133.30
2018-02-21T21:43:26.047Z,139.15
2018-02-21T21:55:54.064Z,150.97
2018-02-21T21:58:21.620Z,149.87
2018-02-21T22:00:49.183Z,149.33
2018-02-21T22:03:16.826Z,142.43
2018-02-21T22:05:44.402Z,135.60
2018-02-21T22:08:11.945Z,138.37
2018-02-21T22:10:39.548Z,132.95
2018-02-21T22:13:07.095Z,145.87
2018-02-21T22:15:34.643Z,128.93
2018-02-21T22:18:02.259Z,134.70
2018-02-21T22:20:29.981Z,125.70
2018-02-21T22:22:57.537Z,130.50
2018-02-21T22:25:25.123Z,129.17
2018-02-21T22:27:53.445Z,128.47
2018-02-21T22:30:21.045Z,138.90
2018-02-21T22:32:48.630Z,127.63
2018-02-21T22:35:16.510Z,126.30
2018-02-21T22:37:44.055Z,137.67
2018-02-21T22:40:11.991Z,130.90
2018-02-21T22:42:39.543Z,133.23
2018-02-21T22:45:07.079Z,137.93
2018-02-21T22:47:34.639Z,124.07
2018-02-21T22:50:02.388Z,130.97
2018-02-21T22:52:29.935Z,153.80
2018-02-21T22:54:58.284Z,132.18
2018-02-21T22:57:25.834Z,128.87
2018-02-21T22:59:53.399Z,128.10
2018-02-21T23:02:21.559Z,138.17
2018-02-21T23:04:49.102Z,142.03
2018-02-21T23:07:16.659Z,131.20
2018-02-21T23:09:44.239Z,120.03
2018-02-21T23:12:11.836Z,129.20
2018-02-21T23:14:39.351Z,125.57
2018-02-21T23:17:06.930Z,122.23
2018-02-21T23:19:34.490Z,121.72
2018-02-21T23:22:02.171Z,125.17
2018-02-21T23:24:29.798Z,122.87
2018-02-21T23:26:57.342Z,111.93
2018-02-21T23:29:24.899Z,121.63
2018-02-21T23:31:52.477Z,111.70
2018-02-21T23:34:20.024Z,113.15
2018-02-21T23:36:47.571Z,108.00
2018-02-21T23:39:15.535Z,116.10
2018-02-21T23:41:43.078Z,102.70
2018-02-21T23:44:11.389Z,119.93
2018-02-21T23:46:39.791Z,112.07
2018-02-21T23:49:07.335Z,111.07
2018-02-21T23:51:34.884Z,104.93
2018-02-21T23:54:02.487Z,119.27
2018-02-21T23:56:30.040Z,113.40
2018-02-21T23:58:57.591Z,107.80
